Time;durP1;ratioP1;P1;durP2;ratioP2;P2;SDS_P1;SDS_P2;PMS_P1;PMS_P2;Temp;Humidity;BMP_temperature;BMP_pressure;BME280_temperature;BME280_humidity;BME280_pressure;Samples;Min_cycle;Max_cycle;Signal;HPM_P1;HPM_P2
2022/06/03 00:02:56;;;;;;;2.08;1.00;;;21.70;44.60;;;;;;2340924;54;20947;-70
2022/06/03 00:06:19;;;;;;;1.48;0.73;;;21.60;44.30;;;;;;2340478;54;20984;-71
2022/06/03 00:09:22;;;;;;;1.80;0.70;;;21.50;44.70;;;;;;2341384;54;21444;-70
2022/06/03 00:12:01;;;;;;;1.80;0.90;;;21.50;44.70;;;;;;2341660;54;21071;-72
2022/06/03 00:15:07;;;;;;;1.67;0.90;;;21.40;44.60;;;;;;2341072;53;20964;-73
2022/06/03 00:18:30;;;;;;;1.83;0.90;;;21.40;44.90;;;;;;2494040;53;20952;-69
2022/06/03 00:20:58;;;;;;;;;;;21.40;44.80;;;;;;2344474;54;20980;-68
2022/06/03 00:24:04;;;;;;;1.65;0.80;;;21.30;44.50;;;;;;2340383;53;20640;-70
2022/06/03 00:26:48;;;;;;;2.25;0.88;;;21.30;44.70;;;;;;2358683;53;21425;-70
2022/06/03 00:30:44;;;;;;;2.75;1.05;;;21.20;44.70;;;;;;2325737;54;20909;-72
2022/06/03 00:33:41;;;;;;;2.80;1.10;;;21.20;45.00;;;;;;2344490;53;20907;-70
2022/06/03 00:37:38;;;;;;;2.70;1.15;;;21.10;45.00;;;;;;2345283;53;20939;-70
2022/06/03 00:43:48;;;;;;;2.40;1.10;;;21.10;45.00;;;;;;2459860;53;20943;-71
2022/06/03 00:46:40;;;;;;;2.67;0.95;;;21.00;45.20;;;;;;2341247;54;21893;-72
2022/06/03 00:49:32;;;;;;;2.75;1.20;;;21.00;45.00;;;;;;2349837;53;21503;-70
2022/06/03 00:54:39;;;;;;;2.75;1.20;;;20.90;45.20;;;;;;2341880;53;20960;-73
2022/06/03 00:57:30;;;;;;;1.67;0.80;;;20.80;45.30;;;;;;2346042;53;21000;-71
2022/06/03 01:00:07;;;;;;;2.28;1.10;;;20.80;45.00;;;;;;2339987;53;20956;-69
2022/06/03 01:03:10;;;;;;;2.17;1.10;;;20.70;45.30;;;;;;2339315;54;21012;-71
2022/06/03 01:06:18;;;;;;;2.97;1.10;;;20.60;45.70;;;;;;2587393;53;21352;-71
2022/06/03 01:10:24;;;;;;;2.60;1.00;;;20.60;45.40;;;;;;2341406;54;20932;-71
2022/06/03 01:13:05;;;;;;;4.18;0.95;;;20.60;45.50;;;;;;2428914;53;20976;-72
2022/06/03 01:19:08;;;;;;;3.20;1.23;;;20.50;45.30;;;;;;2346854;53;20939;-72
2022/06/03 01:24:24;;;;;;;2.12;0.88;;;20.40;45.60;;;;;;2340635;53;20936;-71
2022/06/03 01:30:24;;;;;;;1.35;0.73;;;20.40;45.60;;;;;;2341433;54;20908;-71
2022/06/03 01:37:43;;;;;;;1.67;0.77;;;20.30;45.60;;;;;;2345578;53;20973;-70
2022/06/03 01:40:53;;;;;;;1.67;0.73;;;20.20;45.60;;;;;;2341831;54;21409;-69
2022/06/03 01:44:16;;;;;;;2.90;1.20;;;20.20;45.80;;;;;;2346700;53;21000;-70
2022/06/03 01:47:49;;;;;;;1.70;0.90;;;20.10;46.00;;;;;;2341473;54;20992;-71
2022/06/03 01:57:13;;;;;;;2.10;1.05;;;20.10;46.00;;;;;;2341425;54;21542;-72
2022/06/03 02:00:08;;;;;;;1.60;0.80;;;20.00;45.90;;;;;;2340678;54;21011;-72
2022/06/03 02:04:43;;;;;;;2.30;1.02;;;19.90;46.10;;;;;;2341546;53;21020;-70
2022/06/03 02:08:52;;;;;;;2.67;1.10;;;19.90;46.20;;;;;;2340980;53;20936;-70
2022/06/03 02:11:46;;;;;;;2.28;1.10;;;19.90;46.30;;;;;;2341438;54;20932;-71
2022/06/03 02:14:43;;;;;;;1.92;0.95;;;19.80;46.20;;;;;;2586532;53;20940;-72
2022/06/03 02:20:05;;;;;;;2.28;1.10;;;19.80;46.30;;;;;;2340866;53;20976;-73
2022/06/03 02:26:30;;;;;;;2.00;0.93;;;19.70;46.50;;;;;;2564399;53;20948;-74
2022/06/03 02:31:37;;;;;;;2.72;1.17;;;19.70;46.40;;;;;;2341510;54;20960;-73
2022/06/03 02:35:49;;;;;;;2.17;1.05;;;19.70;46.70;;;;;;2587217;53;20944;-72
2022/06/03 02:40:08;;;;;;;2.20;1.00;;;19.60;47.40;;;;;;2590734;53;21019;-74
2022/06/03 02:44:45;;;;;;;2.25;1.05;;;19.60;47.00;;;;;;2342058;53;20969;-73
2022/06/03 02:50:18;;;;;;;3.15;1.35;;;19.60;47.10;;;;;;2428657;53;20919;-73
2022/06/03 02:53:13;;;;;;;2.28;1.02;;;19.50;47.00;;;;;;2349493;53;20931;-75
2022/06/03 02:59:07;;;;;;;3.12;1.20;;;19.50;47.40;;;;;;2342293;53;21810;-74
2022/06/03 03:04:54;;;;;;;1.90;0.90;;;19.40;47.20;;;;;;2341247;54;20992;-73
2022/06/03 03:09:14;;;;;;;2.50;1.00;;;19.50;47.20;;;;;;2341593;54;20984;-73
2022/06/03 03:15:32;;;;;;;2.22;1.10;;;19.40;47.30;;;;;;2328874;54;20984;-72
2022/06/03 03:24:56;;;;;;;2.22;1.00;;;19.40;47.30;;;;;;2341597;54;20960;-74
2022/06/03 03:28:03;;;;;;;4.07;1.00;;;19.30;47.10;;;;;;2341284;54;20944;-72
2022/06/03 03:31:02;;;;;;;2.12;1.02;;;19.20;47.10;;;;;;2341157;54;21377;-73
2022/06/03 03:34:45;;;;;;;3.58;1.37;;;19.10;47.70;;;;;;2344547;53;20970;-74
2022/06/03 03:38:55;;;;;;;2.53;1.25;;;19.10;47.50;;;;;;2341733;54;21023;-74
2022/06/03 03:45:14;;;;;;;2.80;1.45;;;19.00;47.70;;;;;;2341633;54;21099;-74
2022/06/03 03:53:29;;;;;;;2.90;1.05;;;19.00;48.00;;;;;;2340938;54;20984;-74
2022/06/03 03:58:12;;;;;;;1.98;1.00;;;19.00;47.50;;;;;;2590447;53;21716;-72
2022/06/03 04:02:39;;;;;;;1.80;1.00;;;18.90;47.60;;;;;;2348640;53;21387;-73
2022/06/03 04:07:18;;;;;;;4.03;1.73;;;18.80;47.60;;;;;;2346046;53;20931;-74
2022/06/03 04:12:59;;;;;;;2.78;1.37;;;18.70;48.40;;;;;;2341427;54;21365;-74
2022/06/03 04:15:54;;;;;;;2.22;1.25;;;18.70;48.50;;;;;;2342546;54;21389;-73
2022/06/03 04:26:44;;;;;;;2.70;1.40;;;18.70;49.10;;;;;;2491086;53;20997;-72
2022/06/03 04:31:03;;;;;;;3.65;1.00;;;18.70;48.90;;;;;;2345524;53;20948;-75
2022/06/03 04:33:49;;;;;;;3.47;1.27;;;18.70;49.20;;;;;;2460738;53;20956;-73
2022/06/03 04:42:01;;;;;;;2.78;1.52;;;18.70;49.20;;;;;;2341054;54;20992;-72
2022/06/03 04:51:35;;;;;;;2.22;1.17;;;18.80;49.70;;;;;;2341656;54;21043;-73
2022/06/03 04:56:57;;;;;;;2.30;1.27;;;18.80;49.00;;;;;;2340679;54;20937;-73
2022/06/03 05:03:14;;;;;;;3.60;1.70;;;18.90;49.40;;;;;;2383421;53;20928;-74
2022/06/03 05:07:11;;;;;;;;;;;18.90;49.40;;;;;;2344932;54;21725;-73
2022/06/03 05:10:32;;;;;;;2.83;1.40;;;18.90;49.00;;;;;;2341203;54;20066;-74
2022/06/03 05:16:49;;;;;;;3.00;1.58;;;18.90;49.50;;;;;;2341515;54;21003;-73
2022/06/03 05:19:33;;;;;;;3.67;1.30;;;19.00;49.70;;;;;;2341394;54;21024;-73
2022/06/03 05:22:13;;;;;;;2.70;1.55;;;19.00;49.30;;;;;;2326009;54;20968;-75
2022/06/03 05:31:50;;;;;;;3.78;1.73;;;19.00;49.60;;;;;;2379180;53;20983;-73
2022/06/03 05:39:46;;;;;;;2.42;1.45;;;19.00;49.80;;;;;;2469213;53;21114;-75
2022/06/03 05:49:19;;;;;;;2.92;1.55;;;19.20;50.20;;;;;;2350298;53;21003;-73
2022/06/03 05:52:03;;;;;;;3.05;1.52;;;19.40;50.10;;;;;;2339356;53;21008;-73
2022/06/03 05:55:15;;;;;;;3.53;1.90;;;19.40;50.30;;;;;;2352462;53;21079;-72
2022/06/03 05:59:27;;;;;;;2.58;1.50;;;19.40;51.20;;;;;;2349326;53;20935;-74
2022/06/03 06:02:27;;;;;;;3.33;1.95;;;19.50;51.00;;;;;;2341264;54;20980;-70
2022/06/03 06:05:10;;;;;;;3.78;2.10;;;19.60;51.40;;;;;;2339987;53;21790;-72
2022/06/03 06:11:14;;;;;;;4.15;1.80;;;19.70;51.20;;;;;;2347610;53;20996;-75
2022/06/03 06:16:42;;;;;;;4.37;1.58;;;19.90;51.20;;;;;;2340806;54;20940;-71
2022/06/03 06:19:54;;;;;;;3.95;1.45;;;20.10;51.10;;;;;;2341902;54;20952;-71
2022/06/03 06:22:34;;;;;;;3.17;1.70;;;20.20;51.40;;;;;;2341396;53;20924;-71
2022/06/03 06:25:12;;;;;;;3.40;2.00;;;20.20;50.90;;;;;;2341175;54;20972;-72
2022/06/03 06:28:01;;;;;;;2.60;1.50;;;20.40;51.20;;;;;;2342108;54;20964;-71
2022/06/03 06:32:42;;;;;;;2.67;1.67;;;20.40;51.50;;;;;;2428989;53;21476;-72
2022/06/03 06:38:45;;;;;;;3.55;1.40;;;20.50;51.60;;;;;;2340805;54;20952;-73
2022/06/03 06:42:54;;;;;;;2.80;1.42;;;20.80;51.20;;;;;;2342952;54;20991;-72
2022/06/03 06:45:46;;;;;;;2.72;1.58;;;20.90;51.40;;;;;;2447077;53;20976;-72
2022/06/03 06:52:46;;;;;;;2.87;1.52;;;21.10;51.20;;;;;;2341329;54;21680;-71
2022/06/03 06:56:56;;;;;;;4.72;1.90;;;21.20;51.20;;;;;;2341436;54;20928;-71
2022/06/03 07:00:16;;;;;;;3.30;1.83;;;21.30;51.00;;;;;;2398625;53;20924;-72
2022/06/03 07:02:56;;;;;;;3.10;1.60;;;21.40;50.90;;;;;;2341576;54;21015;-70
2022/06/03 07:05:35;;;;;;;2.50;1.42;;;21.50;51.10;;;;;;2341620;54;20908;-71
2022/06/03 07:09:56;;;;;;;2.95;1.70;;;21.60;51.00;;;;;;2587448;53;20940;-72
2022/06/03 07:12:27;;;;;;;3.10;1.80;;;21.70;50.90;;;;;;2325977;54;20964;-72
2022/06/03 07:15:12;;;;;;;3.00;1.80;;;21.70;50.50;;;;;;2342279;53;20952;-71
2022/06/03 07:21:03;;;;;;;3.08;1.70;;;21.80;50.60;;;;;;2352242;53;20935;-71
2022/06/03 07:23:49;;;;;;;4.65;1.90;;;21.90;50.70;;;;;;2341176;54;20968;-71
2022/06/03 07:26:48;;;;;;;4.05;1.80;;;22.00;50.90;;;;;;2341568;54;20933;-71
2022/06/03 07:29:42;;;;;;;3.40;1.60;;;22.00;50.70;;;;;;2585137;53;20968;-71
2022/06/03 07:32:23;;;;;;;2.70;1.50;;;22.10;50.70;;;;;;2351284;53;20954;-72
2022/06/03 07:34:55;;;;;;;3.30;1.87;;;22.20;50.80;;;;;;2357980;53;20928;-72
2022/06/03 07:37:28;;;;;;;2.60;1.55;;;22.20;50.70;;;;;;2342120;54;21005;-72
2022/06/03 07:41:43;;;;;;;2.80;1.42;;;22.30;50.70;;;;;;2341526;54;20941;-70
2022/06/03 07:44:18;;;;;;;5.32;1.60;;;22.40;51.00;;;;;;2487954;53;21003;-72
2022/06/03 07:46:53;;;;;;;3.90;1.80;;;22.50;50.80;;;;;;2341505;54;20996;-72
2022/06/03 07:49:23;;;;;;;3.33;1.73;;;22.60;51.20;;;;;;2341296;54;21035;-72
2022/06/03 07:51:52;;;;;;;3.60;1.70;;;22.70;51.30;;;;;;2346411;53;21004;-71
2022/06/03 07:54:26;;;;;;;4.50;1.55;;;22.80;51.40;;;;;;2342987;53;21686;-72
2022/06/03 07:57:07;;;;;;;5.82;1.80;;;22.90;51.40;;;;;;2341380;54;21762;-71
2022/06/03 07:59:40;;;;;;;4.60;1.55;;;23.00;51.40;;;;;;2341264;54;20960;-72
2022/06/03 08:02:16;;;;;;;3.45;1.60;;;23.10;51.30;;;;;;2351473;53;21031;-72
2022/06/03 08:04:42;;;;;;;4.60;1.58;;;23.20;51.40;;;;;;2364670;53;21007;-71
2022/06/03 08:13:03;;;;;;;3.58;1.60;;;23.50;51.30;;;;;;2345234;54;20984;-71
2022/06/03 08:15:35;;;;;;;3.10;1.73;;;23.60;51.20;;;;;;2341195;54;21401;-72
2022/06/03 08:18:05;;;;;;;2.58;1.40;;;23.70;51.30;;;;;;2345623;54;20999;-71
2022/06/03 08:20:47;;;;;;;3.28;1.70;;;23.80;51.20;;;;;;2341237;54;20976;-71
2022/06/03 08:23:16;;;;;;;3.03;1.83;;;23.90;51.20;;;;;;2342495;53;20951;-72
2022/06/03 08:25:43;;;;;;;2.50;1.30;;;24.10;51.20;;;;;;2341566;54;21004;-72
2022/06/03 08:28:12;;;;;;;2.67;1.60;;;24.20;51.10;;;;;;2341877;54;21393;-72
2022/06/03 08:30:38;;;;;;;2.72;1.50;;;24.30;51.10;;;;;;2354742;53;20983;-71
2022/06/03 08:33:06;;;;;;;3.08;1.73;;;24.40;50.90;;;;;;2343222;53;20984;-72
2022/06/03 08:35:34;;;;;;;3.12;1.50;;;24.50;50.90;;;;;;2341490;54;20940;-72
2022/06/03 08:38:40;;;;;;;2.78;1.70;;;24.60;51.00;;;;;;2587500;53;20952;-71
2022/06/03 08:41:30;;;;;;;3.10;1.70;;;24.60;50.80;;;;;;2347733;53;20923;-72
2022/06/03 08:45:21;;;;;;;3.17;1.60;;;24.80;50.60;;;;;;2348388;53;20999;-71
2022/06/03 08:47:55;;;;;;;2.92;1.15;;;24.90;50.30;;;;;;2346499;53;20974;-70
2022/06/03 08:51:28;;;;;;;2.75;1.55;;;25.00;50.20;;;;;;2345739;53;21463;-72
2022/06/03 08:53:59;;;;;;;2.92;1.42;;;25.10;50.00;;;;;;2346306;53;20938;-71
2022/06/03 08:56:29;;;;;;;3.08;1.70;;;25.20;50.00;;;;;;2346678;53;21468;-72
2022/06/03 08:59:09;;;;;;;3.08;1.50;;;25.20;49.90;;;;;;2342045;53;21563;-71
2022/06/03 09:01:44;;;;;;;2.33;1.37;;;25.30;49.80;;;;;;2382301;53;20983;-69
2022/06/03 09:04:41;;;;;;;3.28;1.45;;;25.30;49.70;;;;;;2346904;53;20975;-70
2022/06/03 09:07:27;;;;;;;3.42;1.48;;;25.40;49.70;;;;;;2341775;54;20988;-72
2022/06/03 09:11:47;;;;;;;3.40;1.50;;;25.50;50.00;;;;;;2341633;54;20960;-70
2022/06/03 09:14:21;;;;;;;3.03;1.50;;;25.50;49.80;;;;;;2340567;54;21288;-70
2022/06/03 09:16:47;;;;;;;3.35;1.45;;;25.70;49.60;;;;;;2425733;53;20920;-70
2022/06/03 09:19:31;;;;;;;3.25;1.65;;;25.70;49.50;;;;;;2340923;54;21757;-70
2022/06/03 09:21:59;;;;;;;2.40;1.40;;;25.80;49.40;;;;;;2365357;53;21016;-70
2022/06/03 09:24:26;;;;;;;2.10;1.23;;;25.80;49.50;;;;;;2340930;54;20940;-70
2022/06/03 09:26:55;;;;;;;3.65;1.55;;;25.90;49.50;;;;;;2341493;54;20968;-71
2022/06/03 09:29:22;;;;;;;3.37;1.60;;;25.90;49.20;;;;;;2341382;54;21067;-71
2022/06/03 09:31:50;;;;;;;3.62;1.40;;;26.00;49.10;;;;;;2344599;53;20944;-71
2022/06/03 09:34:18;;;;;;;3.00;1.50;;;26.10;49.00;;;;;;2342248;53;21019;-71
2022/06/03 09:36:45;;;;;;;3.72;1.50;;;26.10;48.90;;;;;;2342227;53;20940;-71
2022/06/03 09:39:13;;;;;;;4.70;1.73;;;26.20;48.90;;;;;;2341642;54;20939;-71
2022/06/03 09:41:43;;;;;;;2.90;1.45;;;26.30;48.60;;;;;;2430683;54;20952;-70
2022/06/03 09:44:13;;;;;;;3.75;1.50;;;26.30;48.40;;;;;;2390269;54;21023;-71
2022/06/03 09:46:39;;;;;;;3.10;1.42;;;26.30;48.20;;;;;;2341988;53;20940;-71
2022/06/03 09:49:06;;;;;;;2.80;1.42;;;26.40;48.00;;;;;;2341881;53;21827;-71
2022/06/03 09:51:57;;;;;;;2.92;1.40;;;26.40;47.80;;;;;;2343595;53;21582;-71
2022/06/03 09:54:47;;;;;;;3.97;1.52;;;26.50;48.40;;;;;;2342424;53;21000;-71
2022/06/03 09:57:33;;;;;;;3.25;1.48;;;26.50;47.90;;;;;;2587202;53;20960;-72
2022/06/03 10:00:14;;;;;;;3.65;1.62;;;26.50;47.80;;;;;;2341150;54;20935;-70
2022/06/03 10:02:44;;;;;;;2.92;1.65;;;26.50;47.70;;;;;;2347361;53;20927;-71
2022/06/03 10:05:12;;;;;;;3.20;1.90;;;26.50;47.70;;;;;;2592293;53;21054;-71
2022/06/03 10:07:38;;;;;;;5.03;1.67;;;26.50;47.80;;;;;;2340780;54;20952;-72
2022/06/03 10:12:55;;;;;;;2.90;1.20;;;26.40;47.70;;;;;;2341172;54;20996;-71
2022/06/03 10:15:44;;;;;;;4.18;1.50;;;26.40;47.80;;;;;;2343142;54;21008;-71
2022/06/03 10:18:39;;;;;;;3.50;1.25;;;26.30;47.80;;;;;;2344305;53;21699;-70
2022/06/03 10:21:30;;;;;;;2.70;1.40;;;26.40;48.30;;;;;;2341626;54;20960;-71
2022/06/03 10:23:59;;;;;;;3.40;1.50;;;26.30;48.40;;;;;;2342196;54;20980;-71
2022/06/03 10:26:52;;;;;;;4.90;1.42;;;26.30;48.50;;;;;;2341269;54;20944;-71
2022/06/03 10:29:22;;;;;;;2.65;1.33;;;26.30;48.70;;;;;;2341764;54;21452;-70
2022/06/03 10:32:22;;;;;;;3.20;1.27;;;26.30;48.90;;;;;;2346882;53;20982;-70
2022/06/03 10:34:48;;;;;;;3.22;1.50;;;26.30;49.60;;;;;;2348747;53;20938;-70
2022/06/03 10:37:19;;;;;;;2.92;1.60;;;26.20;49.50;;;;;;2341593;53;21007;-70
2022/06/03 10:39:46;;;;;;;3.83;2.05;;;26.20;49.70;;;;;;2341127;54;20963;-70
2022/06/03 10:42:13;;;;;;;2.87;1.75;;;26.20;49.90;;;;;;2340998;54;21464;-70
2022/06/03 10:44:44;;;;;;;3.90;1.70;;;26.30;50.30;;;;;;2351218;53;21019;-70
2022/06/03 10:47:19;;;;;;;3.80;1.50;;;26.30;50.40;;;;;;2587906;53;20916;-70
2022/06/03 10:49:53;;;;;;;3.10;1.65;;;26.30;50.60;;;;;;2364153;53;20959;-71
2022/06/03 11:02:02;;;;;;;2.40;1.55;;;26.40;51.70;;;;;;2341724;53;20935;-70
2022/06/03 11:04:38;;;;;;;3.10;1.60;;;26.60;51.30;;;;;;2587292;53;20975;-70
2022/06/03 11:07:27;;;;;;;3.03;1.50;;;26.60;51.20;;;;;;2341358;54;20943;-70
2022/06/03 11:10:25;;;;;;;2.97;1.77;;;26.70;51.70;;;;;;2552658;53;21952;-71
2022/06/03 11:13:11;;;;;;;3.97;1.77;;;26.80;51.60;;;;;;2340334;53;1329452;-71
2022/06/03 11:15:40;;;;;;;2.78;1.67;;;26.90;51.50;;;;;;2500820;53;20975;-71
2022/06/03 11:18:29;;;;;;;4.28;1.70;;;27.00;51.60;;;;;;2341157;54;20976;-71
2022/06/03 11:20:56;;;;;;;3.33;1.75;;;27.10;51.80;;;;;;2350293;53;21407;-72
2022/06/03 11:23:25;;;;;;;2.95;1.70;;;27.20;51.40;;;;;;2343218;53;20960;-72
2022/06/03 11:25:56;;;;;;;3.40;1.70;;;27.20;51.30;;;;;;2345591;53;21054;-71
2022/06/03 11:28:31;;;;;;;2.72;1.60;;;27.30;51.20;;;;;;2348444;53;20923;-72
2022/06/03 11:31:23;;;;;;;3.53;1.80;;;27.30;50.90;;;;;;2341898;53;21019;-71
2022/06/03 11:34:22;;;;;;;2.35;1.50;;;27.40;50.60;;;;;;2326272;54;21008;-71
2022/06/03 11:39:53;;;;;;;3.17;1.60;;;27.50;50.60;;;;;;2343743;53;21074;-72
2022/06/03 11:42:51;;;;;;;3.17;1.40;;;27.60;50.40;;;;;;2340670;54;21067;-72
2022/06/03 11:45:22;;;;;;;3.30;1.70;;;27.60;50.10;;;;;;2346720;53;20974;-72
2022/06/03 11:47:54;;;;;;;3.20;1.73;;;27.60;50.00;;;;;;2343623;53;21401;-71
2022/06/03 11:50:23;;;;;;;3.70;1.92;;;27.60;50.10;;;;;;2341339;54;20944;-71
2022/06/03 11:52:50;;;;;;;3.47;1.70;;;27.60;50.10;;;;;;2587392;53;21052;-71
2022/06/03 11:55:28;;;;;;;3.25;1.85;;;27.60;50.00;;;;;;2340935;54;20996;-71
2022/06/03 11:58:03;;;;;;;3.00;1.60;;;27.60;50.30;;;;;;2340865;54;21000;-72
2022/06/03 12:00:35;;;;;;;3.62;1.95;;;27.60;50.30;;;;;;2340856;54;21047;-72
2022/06/03 12:03:38;;;;;;;3.08;1.70;;;27.70;50.60;;;;;;2587476;53;21044;-72
2022/06/03 12:06:17;;;;;;;4.25;1.60;;;27.70;51.10;;;;;;2348704;53;21425;-71
2022/06/03 12:08:50;;;;;;;2.80;1.55;;;27.70;51.00;;;;;;2588810;53;21062;-73
2022/06/03 12:14:44;;;;;;;3.15;1.73;;;27.90;51.00;;;;;;2345537;53;20986;-70
2022/06/03 12:17:25;;;;;;;4.90;2.00;;;27.90;50.60;;;;;;2558922;53;21542;-71
2022/06/03 12:19:53;;;;;;;2.60;1.55;;;28.00;50.50;;;;;;2347741;53;21389;-71
2022/06/03 12:22:41;;;;;;;2.72;1.60;;;28.00;50.10;;;;;;2396627;53;21449;-70
2022/06/03 12:28:01;;;;;;;2.42;1.48;;;28.00;49.80;;;;;;2343930;53;21655;-71
2022/06/03 12:30:50;;;;;;;2.50;1.40;;;28.10;49.50;;;;;;2326045;54;21809;-72
2022/06/03 12:33:42;;;;;;;3.35;1.50;;;28.10;49.10;;;;;;2347299;53;21042;-71
2022/06/03 12:36:47;;;;;;;3.17;1.80;;;28.10;49.00;;;;;;2341540;54;20972;-71
2022/06/03 12:39:31;;;;;;;3.70;1.95;;;28.10;48.80;;;;;;2341307;54;21264;-71
2022/06/03 12:42:03;;;;;;;2.58;1.52;;;28.00;48.70;;;;;;2413067;53;20999;-71
2022/06/03 12:45:25;;;;;;;3.15;2.03;;;28.00;48.60;;;;;;2344975;54;21070;-71
2022/06/03 12:47:51;;;;;;;3.15;1.92;;;27.90;48.70;;;;;;2340682;53;20944;-71
2022/06/03 12:51:06;;;;;;;10.48;1.77;;;27.90;48.60;;;;;;2340407;54;20935;-71
2022/06/03 12:53:39;;;;;;;2.97;1.83;;;27.80;48.70;;;;;;2563651;53;20930;-71
2022/06/03 12:56:09;;;;;;;3.28;2.10;;;27.80;48.80;;;;;;2344985;54;21425;-70
2022/06/03 12:59:02;;;;;;;4.28;2.30;;;27.70;48.90;;;;;;2346575;53;21579;-71
2022/06/03 13:01:34;;;;;;;3.45;2.35;;;27.70;49.00;;;;;;2586130;53;20928;-71
2022/06/03 13:04:25;;;;;;;3.10;2.10;;;27.60;49.00;;;;;;2338781;53;21030;-71
2022/06/03 13:07:29;;;;;;;3.87;2.00;;;27.60;49.10;;;;;;2538409;53;21076;-71
2022/06/03 13:11:07;;;;;;;3.33;2.10;;;27.60;49.30;;;;;;2341144;54;20935;-71
2022/06/03 13:14:27;;;;;;;3.53;2.15;;;27.60;49.20;;;;;;2340634;54;21877;-71
2022/06/03 13:16:53;;;;;;;3.72;2.15;;;27.60;49.20;;;;;;2344805;54;21003;-72
2022/06/03 13:19:42;;;;;;;3.42;1.90;;;27.60;49.20;;;;;;2341088;54;21656;-71
2022/06/03 13:22:11;;;;;;;3.78;2.65;;;27.60;49.20;;;;;;2341084;54;20994;-71
2022/06/03 13:24:38;;;;;;;4.18;2.60;;;27.60;49.30;;;;;;2348177;53;21971;-71
2022/06/03 13:29:48;;;;;;;6.30;3.00;;;27.60;49.30;;;;;;2344694;53;20944;-72
2022/06/03 13:32:16;;;;;;;2.75;1.58;;;27.60;49.50;;;;;;2340699;54;20941;-71
2022/06/03 13:34:44;;;;;;;3.50;2.10;;;27.70;49.40;;;;;;2342859;53;21067;-71
2022/06/03 13:39:02;;;;;;;3.95;2.15;;;27.70;49.50;;;;;;2351223;53;20987;-71
2022/06/03 13:44:46;;;;;;;3.70;1.92;;;27.80;49.50;;;;;;2340173;53;21085;-71
2022/06/03 13:54:47;;;;;;;4.12;2.10;;;27.90;49.50;;;;;;2582202;53;20907;-71
2022/06/03 13:57:25;;;;;;;2.55;1.52;;;28.10;49.50;;;;;;2325609;54;21023;-71
2022/06/03 13:59:51;;;;;;;3.08;1.73;;;28.10;49.30;;;;;;2346267;53;21011;-71
2022/06/03 14:02:52;;;;;;;5.75;2.05;;;28.20;49.50;;;;;;2582516;53;21431;-70
2022/06/03 14:08:01;;;;;;;2.62;1.52;;;28.20;49.30;;;;;;2586715;53;20936;-72
2022/06/03 14:10:39;;;;;;;2.65;1.25;;;28.40;49.20;;;;;;2341377;54;20976;-70
2022/06/03 14:13:22;;;;;;;2.55;1.35;;;28.40;48.90;;;;;;2341259;54;20963;-71
2022/06/03 14:16:08;;;;;;;2.87;1.30;;;28.50;48.70;;;;;;2341400;54;20991;-71
2022/06/03 14:18:52;;;;;;;2.65;1.42;;;28.50;48.60;;;;;;2354265;53;21046;-70
2022/06/03 14:21:45;;;;;;;2.60;1.45;;;28.60;48.50;;;;;;2338571;53;20956;-71
2022/06/03 14:24:35;;;;;;;2.60;1.40;;;28.70;48.60;;;;;;2327283;54;21287;-71
2022/06/03 14:27:29;;;;;;;3.03;1.48;;;28.70;48.50;;;;;;2341380;54;20948;-71
2022/06/03 14:30:10;;;;;;;2.58;1.50;;;28.80;48.30;;;;;;2404856;53;20959;-72
2022/06/03 14:32:36;;;;;;;4.15;1.40;;;28.90;48.40;;;;;;2342337;53;20968;-72
2022/06/03 14:35:11;;;;;;;2.37;1.30;;;28.90;48.90;;;;;;2341323;54;21318;-73
2022/06/03 14:37:56;;;;;;;3.25;1.40;;;29.00;48.10;;;;;;2340367;54;21291;-71
2022/06/03 14:40:35;;;;;;;2.47;1.40;;;29.00;48.10;;;;;;2376211;53;21081;-71
2022/06/03 14:43:02;;;;;;;4.00;1.52;;;29.10;48.00;;;;;;2342186;53;21508;-71
2022/06/03 14:45:34;;;;;;;2.30;1.40;;;29.20;48.20;;;;;;2344721;54;20951;-71
2022/06/03 14:48:01;;;;;;;2.42;1.23;;;29.30;48.00;;;;;;2351657;53;20987;-71
2022/06/03 14:50:30;;;;;;;2.70;1.52;;;29.30;47.80;;;;;;2342984;53;21007;-71
2022/06/03 14:53:05;;;;;;;2.72;1.48;;;29.30;47.50;;;;;;2341393;54;20936;-71
2022/06/03 14:55:35;;;;;;;2.30;1.17;;;29.40;47.50;;;;;;2345166;53;21031;-71
2022/06/03 14:58:26;;;;;;;3.50;1.10;;;29.50;47.80;;;;;;2342547;53;20959;-71
2022/06/03 15:04:26;;;;;;;4.90;1.45;;;29.50;46.90;;;;;;2342767;54;20924;-73
2022/06/03 15:07:06;;;;;;;2.37;1.10;;;29.70;46.90;;;;;;2346292;53;21534;-71
2022/06/03 15:09:41;;;;;;;2.40;0.97;;;29.70;46.20;;;;;;2589216;53;21047;-73
2022/06/03 15:12:25;;;;;;;2.50;1.27;;;29.70;46.50;;;;;;2341513;54;20956;-72
2022/06/03 15:14:51;;;;;;;2.70;1.40;;;29.70;46.10;;;;;;2341320;54;20901;-71
2022/06/03 15:17:34;;;;;;;2.70;1.30;;;29.80;46.30;;;;;;2341656;54;20952;-72
2022/06/03 15:20:05;;;;;;;3.03;1.50;;;29.80;46.00;;;;;;2341437;54;21461;-72
2022/06/03 15:22:54;;;;;;;2.62;1.30;;;29.80;46.20;;;;;;2340854;53;20928;-72
2022/06/03 15:25:36;;;;;;;3.35;1.08;;;29.90;46.00;;;;;;2341572;54;20889;-72
2022/06/03 15:28:07;;;;;;;3.75;1.50;;;29.90;45.70;;;;;;2341819;54;21003;-72
2022/06/03 15:31:03;;;;;;;2.60;1.03;;;30.00;46.00;;;;;;2348304;53;20952;-72
2022/06/03 15:33:42;;;;;;;2.53;1.35;;;30.00;45.40;;;;;;2341084;53;20952;-73
2022/06/03 15:36:13;;;;;;;2.30;1.20;;;30.00;45.20;;;;;;2344501;53;20960;-70
2022/06/03 15:38:44;;;;;;;2.35;1.10;;;30.00;45.50;;;;;;2408266;53;20927;-71
2022/06/03 15:41:22;;;;;;;2.35;1.23;;;30.00;45.40;;;;;;2341723;54;21079;-71
2022/06/03 15:43:50;;;;;;;2.37;1.10;;;30.00;44.90;;;;;;2358675;53;21496;-71
2022/06/03 15:49:50;;;;;;;2.78;1.23;;;30.00;44.90;;;;;;2341249;54;20948;-72
2022/06/03 15:52:17;;;;;;;2.40;1.08;;;30.00;44.80;;;;;;2346951;53;21519;-72
2022/06/03 15:54:57;;;;;;;2.30;1.10;;;30.00;44.70;;;;;;2344788;53;20959;-71
2022/06/03 15:59:37;;;;;;;2.28;1.25;;;29.90;44.60;;;;;;2345812;53;20949;-71
2022/06/03 16:02:12;;;;;;;4.12;1.33;;;29.90;44.70;;;;;;2341650;57;21068;-71
2022/06/03 16:05:02;;;;;;;6.07;1.23;;;29.80;44.80;;;;;;2523117;53;21052;-71
2022/06/03 16:08:03;;;;;;;2.22;1.05;;;29.70;44.50;;;;;;2435374;53;21010;-71
2022/06/03 16:10:53;;;;;;;2.53;1.17;;;29.70;44.30;;;;;;2340932;53;21019;-71
2022/06/03 16:14:32;;;;;;;3.30;1.05;;;29.60;44.20;;;;;;2347135;53;20954;-73
2022/06/03 16:17:37;;;;;;;2.80;0.98;;;29.60;44.30;;;;;;2429147;53;20991;-71
2022/06/03 16:20:14;;;;;;;2.43;1.40;;;29.40;44.20;;;;;;2341722;53;21924;-72
2022/06/03 16:23:04;;;;;;;2.50;1.20;;;29.40;44.40;;;;;;2587218;53;21638;-71
2022/06/03 16:25:55;;;;;;;2.10;1.00;;;29.30;44.70;;;;;;2325364;54;20976;-70
2022/06/03 16:32:07;;;;;;;2.50;1.25;;;29.20;44.80;;;;;;2346001;53;21819;-72
2022/06/03 16:35:13;;;;;;;2.37;1.10;;;29.10;45.00;;;;;;2343221;54;20952;-72
2022/06/03 16:44:53;;;;;;;2.92;1.20;;;29.00;45.00;;;;;;2341043;54;20944;-72
2022/06/03 16:47:40;;;;;;;3.42;1.12;;;29.00;45.20;;;;;;2347341;53;20976;-72
2022/06/03 16:50:16;;;;;;;3.62;1.35;;;28.80;45.10;;;;;;2347678;53;21522;-73
2022/06/03 16:52:49;;;;;;;2.65;1.40;;;28.70;45.20;;;;;;2343710;53;21012;-71
2022/06/03 16:55:37;;;;;;;3.60;1.58;;;28.60;45.30;;;;;;2340773;53;21929;-70
2022/06/03 16:58:06;;;;;;;2.47;1.40;;;28.50;45.50;;;;;;2341454;53;21026;-74
2022/06/03 17:00:32;;;;;;;2.65;1.37;;;28.40;45.50;;;;;;2443338;53;21020;-72
2022/06/03 17:03:07;;;;;;;2.40;1.30;;;28.40;45.70;;;;;;2351505;53;21842;-70
2022/06/03 17:05:43;;;;;;;3.30;1.60;;;28.30;45.80;;;;;;2342905;53;21079;-71
2022/06/03 17:08:09;;;;;;;2.60;1.35;;;28.20;45.90;;;;;;2499668;53;20996;-71
2022/06/03 17:10:36;;;;;;;3.83;1.58;;;28.20;46.00;;;;;;2341458;54;21808;-71
2022/06/03 17:13:04;;;;;;;4.30;1.50;;;28.20;46.10;;;;;;2340129;53;21007;-72
2022/06/03 17:15:32;;;;;;;3.03;1.77;;;28.10;46.20;;;;;;2345790;53;20999;-72
2022/06/03 17:17:58;;;;;;;2.75;1.55;;;28.10;46.30;;;;;;2522645;53;20946;-71
2022/06/03 17:22:03;;;;;;;4.80;1.98;;;28.10;46.40;;;;;;2343395;53;21016;-72
2022/06/03 17:25:07;;;;;;;2.85;1.55;;;28.00;46.60;;;;;;2346258;53;21082;-71
2022/06/03 17:33:03;;;;;;;3.20;1.67;;;28.00;46.70;;;;;;2412135;53;21398;-72
2022/06/03 17:39:19;;;;;;;2.50;1.10;;;27.90;46.60;;;;;;2343524;53;20959;-71
2022/06/03 17:41:45;;;;;;;;;;;27.80;46.80;;;;;;2344731;54;20916;-70
2022/06/03 17:44:29;;;;;;;3.95;1.40;;;27.80;46.90;;;;;;2341278;54;20066;-70
2022/06/03 17:47:25;;;;;;;4.30;1.27;;;27.80;47.50;;;;;;2341396;54;20968;-71
2022/06/03 17:50:03;;;;;;;2.78;1.37;;;27.80;48.00;;;;;;2339013;54;21048;-70
2022/06/03 17:55:56;;;;;;;2.67;1.20;;;28.00;48.10;;;;;;2370447;54;21445;-70
2022/06/03 17:58:57;;;;;;;3.90;1.48;;;28.20;48.40;;;;;;2341183;54;21007;-70
2022/06/03 18:03:11;;;;;;;2.10;1.17;;;28.40;48.50;;;;;;2330025;54;20979;-70
2022/06/03 18:06:03;;;;;;;3.05;1.10;;;28.80;48.10;;;;;;2341782;54;21257;-71
2022/06/03 18:10:28;;;;;;;1.90;0.93;;;29.00;47.70;;;;;;2344600;54;21348;-70
2022/06/03 18:12:57;;;;;;;2.37;1.00;;;29.40;47.30;;;;;;2341713;54;21781;-70
2022/06/03 18:15:26;;;;;;;2.08;1.15;;;29.60;47.40;;;;;;2341248;54;20971;-72
2022/06/03 18:17:59;;;;;;;2.25;1.17;;;29.70;46.30;;;;;;2341419;54;20932;-71